Time;durP1;ratioP1;P1;durP2;ratioP2;P2;SDS_P1;SDS_P2;PMS_P1;PMS_P2;Temp;Humidity;BMP_temperature;BMP_pressure;BME280_temperature;BME280_humidity;BME280_pressure;Samples;Min_cycle;Max_cycle;Signal;HPM_P1;HPM_P2
2023/12/03 00:00:31;;;;;;;;;;;;;;;;;;4936524;28;19919;-92
2023/12/03 00:02:57;;;;;;;;;;;;;;;;;;4935749;28;20000;-92
2023/12/03 00:05:23;;;;;;;;;;;;;;;;;;4934541;29;19914;-92
2023/12/03 00:07:49;;;;;;;;;;;;;;;;;;4934749;28;20013;-92
2023/12/03 00:10:15;;;;;;;;;;;;;;;;;;4931874;29;20014;-92
2023/12/03 00:12:41;;;;;;;;;;;;;;;;;;4934944;28;20009;-92
2023/12/03 00:15:07;;;;;;;;;;;;;;;;;;4924379;28;20367;-91
2023/12/03 00:17:33;;;;;;;;;;;;;;;;;;4932878;28;19978;-91
2023/12/03 00:19:59;;;;;;;;;;;;;;;;;;4933321;28;19914;-91
2023/12/03 00:22:25;;;;;;;;;;;;;;;;;;4931804;28;20922;-92
2023/12/03 00:24:51;;;;;;;;;;;;;;;;;;4926501;28;20013;-92
2023/12/03 00:27:17;;;;;;;;;;;;;;;;;;4933740;28;19919;-91
2023/12/03 00:29:43;;;;;;;;;;;;;;;;;;4933593;29;19926;-92
2023/12/03 00:32:09;;;;;;;;;;;;;;;;;;4936671;28;20581;-93
2023/12/03 00:34:35;;;;;;;;;;;;;;;;;;4934801;28;19945;-91
2023/12/03 00:37:01;;;;;;;;;;;;;;;;;;4939130;28;20345;-93
2023/12/03 00:39:27;;;;;;;;;;;;;;;;;;4938872;28;20371;-93
2023/12/03 00:41:52;;;;;;;;;;;;;;;;;;4941234;28;20293;-94
2023/12/03 00:44:18;;;;;;;;;;;;;;;;;;4934627;29;19915;-94
2023/12/03 00:46:44;;;;;;;;;;;;;;;;;;4939902;28;19918;-92
2023/12/03 00:49:10;;;;;;;;;;;;;;;;;;4936746;28;20382;-92
2023/12/03 00:51:36;;;;;;;;;;;;;;;;;;4936179;28;20017;-92
2023/12/03 00:54:02;;;;;;;;;;;;;;;;;;4932996;29;20294;-92
2023/12/03 00:56:28;;;;;;;;;;;;;;;;;;4936962;28;20384;-93
2023/12/03 00:58:54;;;;;;;;;;;;;;;;;;4937871;28;19970;-92
2023/12/03 01:01:20;;;;;;;;;;;;;;;;;;4932820;28;20017;-92
2023/12/03 01:03:46;;;;;;;;;;;;;;;;;;4952444;28;19938;-92
2023/12/03 01:06:12;;;;;;;;;;;;;;;;;;4940047;28;19927;-92
2023/12/03 01:08:38;;;;;;;;;;;;;;;;;;4953014;28;19914;-92
2023/12/03 01:11:04;;;;;;;;;;;;;;;;;;4937219;28;19915;-92
2023/12/03 01:13:30;;;;;;;;;;;;;;;;;;4933636;28;20899;-92
2023/12/03 01:15:56;;;;;;;;;;;;;;;;;;4933307;28;19923;-92
2023/12/03 01:18:22;;;;;;;;;;;;;;;;;;4943486;28;19927;-91
2023/12/03 01:20:48;;;;;;;;;;;;;;;;;;4943439;28;20402;-92
2023/12/03 01:23:14;;;;;;;;;;;;;;;;;;4934450;28;19915;-91
2023/12/03 01:25:39;;;;;;;;;;;;;;;;;;4932480;29;20409;-92
2023/12/03 01:28:05;;;;;;;;;;;;;;;;;;4930213;28;19919;-92
2023/12/03 01:30:31;;;;;;;;;;;;;;;;;;4933964;28;19914;-91
2023/12/03 01:32:57;;;;;;;;;;;;;;;;;;4948522;28;20338;-91
2023/12/03 01:35:23;;;;;;;;;;;;;;;;;;4948000;28;20286;-92
2023/12/03 01:37:49;;;;;;;;;;;;;;;;;;4946489;28;19934;-92
2023/12/03 01:40:15;;;;;;;;;;;;;;;;;;4928786;28;20013;-92
2023/12/03 01:42:44;;;;;;;;;;;;;;;;;;4934899;29;19918;-92
2023/12/03 01:45:10;;;;;;;;;;;;;;;;;;4933132;28;19922;-92
2023/12/03 01:47:36;;;;;;;;;;;;;;;;;;4934318;28;19921;-92
2023/12/03 01:50:02;;;;;;;;;;;;;;;;;;4946665;28;19921;-92
2023/12/03 01:52:28;;;;;;;;;;;;;;;;;;4923903;28;19923;-92
2023/12/03 01:54:57;;;;;;;;;;;;;;;;;;4934478;29;19914;-94
2023/12/03 01:57:23;;;;;;;;;;;;;;;;;;4932416;28;19929;-94
2023/12/03 01:59:49;;;;;;;;;;;;;;;;;;4932689;28;19914;-93
2023/12/03 02:02:15;;;;;;;;;;;;;;;;;;4946157;28;19919;-94
2023/12/03 02:04:41;;;;;;;;;;;;;;;;;;4932360;28;19923;-95
2023/12/03 02:07:07;;;;;;;;;;;;;;;;;;4935179;29;19922;-95
2023/12/03 02:09:33;;;;;;;;;;;;;;;;;;4933383;28;19930;-96
2023/12/03 02:11:59;;;;;;;;;;;;;;;;;;4929945;28;20118;-95
2023/12/03 02:14:25;;;;;;;;;;;;;;;;;;4933721;28;19922;-95
2023/12/03 02:16:50;;;;;;;;;;;;;;;;;;4932876;28;19933;-96
2023/12/03 02:19:16;;;;;;;;;;;;;;;;;;4949176;28;19918;-95
2023/12/03 02:21:42;;;;;;;;;;;;;;;;;;4931770;28;19915;-96
2023/12/03 02:24:08;;;;;;;;;;;;;;;;;;4948441;28;19922;-95
2023/12/03 02:26:34;;;;;;;;;;;;;;;;;;4933262;28;19930;-96
2023/12/03 02:29:06;;;;;;;;;;;;;;;;;;4949395;28;19978;-95
2023/12/03 02:31:32;;;;;;;;;;;;;;;;;;4935763;28;19922;-95
2023/12/03 02:33:58;;;;;;;;;;;;;;;;;;4948643;28;19989;-96
2023/12/03 02:36:24;;;;;;;;;;;;;;;;;;4935444;29;19922;-95
2023/12/03 02:38:50;;;;;;;;;;;;;;;;;;4935057;29;19926;-96
2023/12/03 02:41:17;;;;;;;;;;;;;;;;;;4948028;28;19919;-95
2023/12/03 02:43:43;;;;;;;;;;;;;;;;;;4941469;28;20445;-96
2023/12/03 02:46:09;;;;;;;;;;;;;;;;;;4938356;29;19915;-95
2023/12/03 02:48:35;;;;;;;;;;;;;;;;;;4935345;28;19926;-95
2023/12/03 02:51:01;;;;;;;;;;;;;;;;;;4952576;28;19930;-95
2023/12/03 02:53:27;;;;;;;;;;;;;;;;;;4949177;28;19922;-96
2023/12/03 02:55:53;;;;;;;;;;;;;;;;;;4949441;28;19930;-95
2023/12/03 02:58:19;;;;;;;;;;;;;;;;;;4934755;28;19926;-96
2023/12/03 03:00:45;;;;;;;;;;;;;;;;;;4934990;28;20017;-95
2023/12/03 03:03:11;;;;;;;;;;;;;;;;;;4936112;29;19922;-94
2023/12/03 03:05:37;;;;;;;;;;;;;;;;;;4933182;28;19914;-95
2023/12/03 03:08:03;;;;;;;;;;;;;;;;;;4933063;28;19918;-95
2023/12/03 03:10:29;;;;;;;;;;;;;;;;;;4947580;28;19926;-95
2023/12/03 03:12:55;;;;;;;;;;;;;;;;;;4935079;28;19982;-95
2023/12/03 03:15:21;;;;;;;;;;;;;;;;;;4934466;28;20338;-92
2023/12/03 03:17:47;;;;;;;;;;;;;;;;;;4936046;28;19919;-92
2023/12/03 03:20:13;;;;;;;;;;;;;;;;;;4930847;28;19922;-92
2023/12/03 03:22:39;;;;;;;;;;;;;;;;;;4936229;28;19922;-92
2023/12/03 03:25:05;;;;;;;;;;;;;;;;;;4936397;28;20001;-92
2023/12/03 03:27:31;;;;;;;;;;;;;;;;;;4934536;28;19925;-93
2023/12/03 03:29:57;;;;;;;;;;;;;;;;;;4949289;28;19918;-93
2023/12/03 03:32:23;;;;;;;;;;;;;;;;;;4933785;28;20358;-92
2023/12/03 03:34:49;;;;;;;;;;;;;;;;;;4936275;28;19914;-93
2023/12/03 03:37:15;;;;;;;;;;;;;;;;;;4947679;28;19918;-92
2023/12/03 03:39:41;;;;;;;;;;;;;;;;;;4935990;29;19929;-92
2023/12/03 03:42:07;;;;;;;;;;;;;;;;;;4933766;28;19922;-92
2023/12/03 03:44:33;;;;;;;;;;;;;;;;;;4933667;29;19914;-92
2023/12/03 03:46:59;;;;;;;;;;;;;;;;;;4936351;29;20006;-92
2023/12/03 03:49:25;;;;;;;;;;;;;;;;;;4943132;28;20013;-92
2023/12/03 03:51:51;;;;;;;;;;;;;;;;;;4932355;28;19978;-92
2023/12/03 03:54:17;;;;;;;;;;;;;;;;;;4934520;28;19919;-91
2023/12/03 03:56:42;;;;;;;;;;;;;;;;;;4935182;29;19961;-91
2023/12/03 03:59:08;;;;;;;;;;;;;;;;;;4943563;28;19918;-91
2023/12/03 04:01:34;;;;;;;;;;;;;;;;;;4945325;28;19923;-91
2023/12/03 04:04:00;;;;;;;;;;;;;;;;;;4933829;29;19954;-91
2023/12/03 04:06:26;;;;;;;;;;;;;;;;;;4938917;28;19946;-92
2023/12/03 04:08:52;;;;;;;;;;;;;;;;;;4937499;29;19919;-92
2023/12/03 04:11:18;;;;;;;;;;;;;;;;;;4935277;28;19990;-91
2023/12/03 04:13:44;;;;;;;;;;;;;;;;;;4936838;28;19918;-91
2023/12/03 04:16:14;;;;;;;;;;;;;;;;;;4939678;28;19926;-94
2023/12/03 04:18:39;;;;;;;;;;;;;;;;;;4944741;29;20570;-94
2023/12/03 04:21:05;;;;;;;;;;;;;;;;;;4949665;28;19915;-94
2023/12/03 04:23:32;;;;;;;;;;;;;;;;;;4944024;28;19926;-94
2023/12/03 04:25:57;;;;;;;;;;;;;;;;;;4957714;28;20009;-95
2023/12/03 04:28:23;;;;;;;;;;;;;;;;;;4944157;29;20000;-94
2023/12/03 04:30:56;;;;;;;;;;;;;;;;;;4947056;28;20497;-94
2023/12/03 04:33:22;;;;;;;;;;;;;;;;;;4941592;29;19961;-94
2023/12/03 04:35:48;;;;;;;;;;;;;;;;;;4937275;28;19969;-94
2023/12/03 04:38:19;;;;;;;;;;;;;;;;;;4953846;28;19919;-93
2023/12/03 04:40:45;;;;;;;;;;;;;;;;;;4937944;28;19918;-94
2023/12/03 04:43:11;;;;;;;;;;;;;;;;;;4939305;28;19981;-94
2023/12/03 04:45:37;;;;;;;;;;;;;;;;;;4941615;28;19919;-94
2023/12/03 04:48:04;;;;;;;;;;;;;;;;;;4940728;29;20367;-94
2023/12/03 04:50:30;;;;;;;;;;;;;;;;;;4939737;28;20370;-94
2023/12/03 04:52:59;;;;;;;;;;;;;;;;;;4941399;29;19922;-94
2023/12/03 04:55:25;;;;;;;;;;;;;;;;;;4944033;29;19919;-94
2023/12/03 04:57:51;;;;;;;;;;;;;;;;;;4956430;28;19933;-95
2023/12/03 05:00:17;;;;;;;;;;;;;;;;;;4940295;28;19923;-93
2023/12/03 05:02:43;;;;;;;;;;;;;;;;;;4945167;28;20433;-94
2023/12/03 05:05:09;;;;;;;;;;;;;;;;;;4943289;28;20262;-94
2023/12/03 05:07:35;;;;;;;;;;;;;;;;;;4942157;28;19922;-94
2023/12/03 05:10:01;;;;;;;;;;;;;;;;;;4944387;28;19927;-94
2023/12/03 05:12:27;;;;;;;;;;;;;;;;;;4948908;29;20450;-94
2023/12/03 05:14:53;;;;;;;;;;;;;;;;;;4957127;28;19929;-94
2023/12/03 05:17:19;;;;;;;;;;;;;;;;;;4944248;29;19923;-95
2023/12/03 05:19:45;;;;;;;;;;;;;;;;;;4949063;28;19919;-95
2023/12/03 05:22:11;;;;;;;;;;;;;;;;;;4955613;28;19918;-96
2023/12/03 05:24:37;;;;;;;;;;;;;;;;;;4952468;28;19990;-94
2023/12/03 05:27:03;;;;;;;;;;;;;;;;;;4954944;28;19922;-91
2023/12/03 05:29:28;;;;;;;;;;;;;;;;;;4942001;29;19945;-93
2023/12/03 05:31:55;;;;;;;;;;;;;;;;;;4948336;28;19921;-91
2023/12/03 05:34:21;;;;;;;;;;;;;;;;;;4937531;28;21191;-92
2023/12/03 05:36:47;;;;;;;;;;;;;;;;;;4950944;28;19915;-90
2023/12/03 05:39:13;;;;;;;;;;;;;;;;;;4932151;28;19922;-91
2023/12/03 05:41:39;;;;;;;;;;;;;;;;;;4935928;28;19961;-92
2023/12/03 05:44:05;;;;;;;;;;;;;;;;;;4946751;28;19926;-91
2023/12/03 05:46:31;;;;;;;;;;;;;;;;;;4936751;29;19918;-94
2023/12/03 05:48:57;;;;;;;;;;;;;;;;;;4951319;28;19925;-93
2023/12/03 05:51:23;;;;;;;;;;;;;;;;;;4937400;28;19915;-94
2023/12/03 05:53:49;;;;;;;;;;;;;;;;;;4935931;28;19962;-94
2023/12/03 05:56:15;;;;;;;;;;;;;;;;;;4936465;28;19942;-92
2023/12/03 05:58:41;;;;;;;;;;;;;;;;;;4934499;28;20001;-91
2023/12/03 06:01:08;;;;;;;;;;;;;;;;;;4935228;29;19923;-93
2023/12/03 06:03:34;;;;;;;;;;;;;;;;;;4935143;28;19914;-93
2023/12/03 06:06:00;;;;;;;;;;;;;;;;;;4934802;28;20290;-93
2023/12/03 06:08:25;;;;;;;;;;;;;;;;;;4937913;28;19921;-94
2023/12/03 06:10:51;;;;;;;;;;;;;;;;;;4939933;28;20312;-93
2023/12/03 06:13:17;;;;;;;;;;;;;;;;;;4936405;29;19977;-94
2023/12/03 06:15:44;;;;;;;;;;;;;;;;;;4932233;28;19922;-92
2023/12/03 06:18:10;;;;;;;;;;;;;;;;;;4939199;29;19961;-94
2023/12/03 06:20:36;;;;;;;;;;;;;;;;;;4941274;28;19911;-93
2023/12/03 06:23:02;;;;;;;;;;;;;;;;;;4935883;29;19921;-93
2023/12/03 06:25:28;;;;;;;;;;;;;;;;;;4938260;28;19929;-93
2023/12/03 06:27:54;;;;;;;;;;;;;;;;;;4941406;28;19922;-92
2023/12/03 06:30:20;;;;;;;;;;;;;;;;;;4945462;28;20484;-93
2023/12/03 06:32:47;;;;;;;;;;;;;;;;;;4939564;28;19985;-93
2023/12/03 06:35:14;;;;;;;;;;;;;;;;;;4936192;29;20363;-93
2023/12/03 06:37:40;;;;;;;;;;;;;;;;;;4936127;29;20045;-93
2023/12/03 06:40:06;;;;;;;;;;;;;;;;;;4935535;28;19942;-93
2023/12/03 06:42:32;;;;;;;;;;;;;;;;;;4934315;28;19922;-93
2023/12/03 06:44:58;;;;;;;;;;;;;;;;;;4940224;28;19922;-92
2023/12/03 06:47:24;;;;;;;;;;;;;;;;;;4936901;28;19918;-93
2023/12/03 06:49:50;;;;;;;;;;;;;;;;;;4936128;28;19921;-93
2023/12/03 06:52:16;;;;;;;;;;;;;;;;;;4937588;28;19927;-92
2023/12/03 06:54:42;;;;;;;;;;;;;;;;;;4938919;28;20282;-95
2023/12/03 06:57:08;;;;;;;;;;;;;;;;;;4930598;29;19918;-93
2023/12/03 06:59:34;;;;;;;;;;;;;;;;;;4939407;28;19945;-93
2023/12/03 07:02:04;;;;;;;;;;;;;;;;;;4939082;29;20124;-94
2023/12/03 07:04:32;;;;;;;;;;;;;;;;;;4933986;28;19915;-93
2023/12/03 07:06:58;;;;;;;;;;;;;;;;;;4932255;28;19925;-93
2023/12/03 07:09:24;;;;;;;;;;;;;;;;;;4937539;28;19919;-93
2023/12/03 07:11:50;;;;;;;;;;;;;;;;;;4934690;28;19925;-93
2023/12/03 07:14:16;;;;;;;;;;;;;;;;;;4933388;28;19929;-93
2023/12/03 07:16:42;;;;;;;;;;;;;;;;;;4946958;28;19931;-94
2023/12/03 07:19:08;;;;;;;;;;;;;;;;;;4940727;28;19910;-93
2023/12/03 07:21:34;;;;;;;;;;;;;;;;;;4940645;29;19922;-93
2023/12/03 07:23:59;;;;;;;;;;;;;;;;;;4937947;28;19953;-93
2023/12/03 07:26:25;;;;;;;;;;;;;;;;;;4937872;28;20357;-93
2023/12/03 07:28:51;;;;;;;;;;;;;;;;;;4936388;28;20025;-94
2023/12/03 07:31:18;;;;;;;;;;;;;;;;;;4931527;28;20055;-93
2023/12/03 07:33:44;;;;;;;;;;;;;;;;;;4933952;28;20775;-93
2023/12/03 07:36:10;;;;;;;;;;;;;;;;;;4932613;28;20024;-94
2023/12/03 07:38:36;;;;;;;;;;;;;;;;;;4938479;28;19922;-94
2023/12/03 07:41:01;;;;;;;;;;;;;;;;;;4940123;28;19966;-94
2023/12/03 07:43:28;;;;;;;;;;;;;;;;;;4950597;28;20368;-94
2023/12/03 07:45:54;;;;;;;;;;;;;;;;;;4933214;29;19930;-93
2023/12/03 07:48:20;;;;;;;;;;;;;;;;;;4941089;28;19914;-94
2023/12/03 07:50:46;;;;;;;;;;;;;;;;;;4937025;29;19915;-93
2023/12/03 07:53:12;;;;;;;;;;;;;;;;;;4941164;28;19917;-92
2023/12/03 07:55:38;;;;;;;;;;;;;;;;;;4937573;28;19918;-93
2023/12/03 07:58:04;;;;;;;;;;;;;;;;;;4937308;28;19927;-93
2023/12/03 08:00:30;;;;;;;;;;;;;;;;;;4936427;28;20358;-92
2023/12/03 08:02:56;;;;;;;;;;;;;;;;;;4950170;28;19921;-92
2023/12/03 08:05:22;;;;;;;;;;;;;;;;;;4937766;28;19999;-92
2023/12/03 08:07:48;;;;;;;;;;;;;;;;;;4942137;28;20290;-92
2023/12/03 08:10:14;;;;;;;;;;;;;;;;;;4938065;28;19910;-90
2023/12/03 08:12:39;;;;;;;;;;;;;;;;;;4930148;29;20010;-91
2023/12/03 08:15:06;;;;;;;;;;;;;;;;;;4934417;28;19918;-93
2023/12/03 08:17:32;;;;;;;;;;;;;;;;;;4937795;28;19918;-94
2023/12/03 08:19:57;;;;;;;;;;;;;;;;;;4938155;29;19926;-92
2023/12/03 08:22:23;;;;;;;;;;;;;;;;;;4948254;28;19923;-93
2023/12/03 08:24:52;;;;;;;;;;;;;;;;;;4938921;28;19914;-92
2023/12/03 08:27:18;;;;;;;;;;;;;;;;;;4935387;28;19936;-93
2023/12/03 08:29:44;;;;;;;;;;;;;;;;;;4951980;28;19914;-93
2023/12/03 08:32:10;;;;;;;;;;;;;;;;;;4943823;28;20001;-92
2023/12/03 08:34:36;;;;;;;;;;;;;;;;;;4938357;28;19926;-92
2023/12/03 08:37:02;;;;;;;;;;;;;;;;;;4939730;28;19921;-92
2023/12/03 08:39:28;;;;;;;;;;;;;;;;;;4944314;29;19922;-92
2023/12/03 08:41:53;;;;;;;;;;;;;;;;;;4940049;28;19917;-91
2023/12/03 08:44:19;;;;;;;;;;;;;;;;;;4943616;28;19930;-91
2023/12/03 08:46:45;;;;;;;;;;;;;;;;;;4945038;28;19926;-92
2023/12/03 08:49:11;;;;;;;;;;;;;;;;;;4940379;28;19945;-92
2023/12/03 08:51:38;;;;;;;;;;;;;;;;;;4937650;28;19943;-92
2023/12/03 08:54:04;;;;;;;;;;;;;;;;;;4941135;28;19910;-92
2023/12/03 08:56:30;;;;;;;;;;;;;;;;;;4944484;28;19949;-92
2023/12/03 08:58:56;;;;;;;;;;;;;;;;;;4943778;29;19921;-91
2023/12/03 09:01:22;;;;;;;;;;;;;;;;;;4945231;28;19923;-92
2023/12/03 09:03:49;;;;;;;;;;;;;;;;;;4958424;28;19915;-92
2023/12/03 09:06:15;;;;;;;;;;;;;;;;;;4940783;28;19957;-93
2023/12/03 09:08:41;;;;;;;;;;;;;;;;;;4941654;28;19926;-93
2023/12/03 09:11:07;;;;;;;;;;;;;;;;;;4943200;29;19974;-91
2023/12/03 09:13:33;;;;;;;;;;;;;;;;;;4942106;28;19918;-92
2023/12/03 09:15:59;;;;;;;;;;;;;;;;;;4947824;28;20748;-91
2023/12/03 09:18:25;;;;;;;;;;;;;;;;;;4950035;28;20623;-90
2023/12/03 09:20:51;;;;;;;;;;;;;;;;;;4938927;29;20483;-90
2023/12/03 09:23:17;;;;;;;;;;;;;;;;;;4939147;28;19919;-90
2023/12/03 09:25:46;;;;;;;;;;;;;;;;;;4940985;28;20026;-90
2023/12/03 09:28:12;;;;;;;;;;;;;;;;;;4935436;28;19922;-90
2023/12/03 09:30:38;;;;;;;;;;;;;;;;;;4937103;28;19923;-90
2023/12/03 09:33:05;;;;;;;;;;;;;;;;;;4957205;28;19914;-91
2023/12/03 09:35:31;;;;;;;;;;;;;;;;;;4939480;28;19942;-91
2023/12/03 09:37:57;;;;;;;;;;;;;;;;;;4962214;28;19922;-90
2023/12/03 09:40:23;;;;;;;;;;;;;;;;;;4940720;28;19918;-91
2023/12/03 09:42:50;;;;;;;;;;;;;;;;;;4943030;29;19914;-91
2023/12/03 09:45:17;;;;;;;;;;;;;;;;;;4936156;28;19918;-91
2023/12/03 09:47:43;;;;;;;;;;;;;;;;;;4944537;28;19953;-90
2023/12/03 09:50:09;;;;;;;;;;;;;;;;;;4943328;28;19930;-90
2023/12/03 09:52:35;;;;;;;;;;;;;;;;;;4940396;29;19977;-91
2023/12/03 09:55:01;;;;;;;;;;;;;;;;;;4946093;28;19923;-92
2023/12/03 09:57:39;;;;;;;;;;;;;;;;;;4941113;28;19922;-90
2023/12/03 10:00:05;;;;;;;;;;;;;;;;;;4940885;29;20298;-91
2023/12/03 10:02:38;;;;;;;;;;;;;;;;;;4946079;28;20270;-91
2023/12/03 10:05:04;;;;;;;;;;;;;;;;;;4944283;28;20015;-91
2023/12/03 10:07:30;;;;;;;;;;;;;;;;;;4942329;28;20001;-91
2023/12/03 10:09:57;;;;;;;;;;;;;;;;;;4940194;28;19923;-91
2023/12/03 10:12:23;;;;;;;;;;;;;;;;;;4938433;28;19914;-91
2023/12/03 10:14:52;;;;;;;;;;;;;;;;;;4940530;28;19914;-91
2023/12/03 10:17:19;;;;;;;;;;;;;;;;;;4939994;28;19950;-91
2023/12/03 10:19:45;;;;;;;;;;;;;;;;;;4940995;28;19918;-91
2023/12/03 10:22:12;;;;;;;;;;;;;;;;;;4941271;28;19925;-91
2023/12/03 10:24:38;;;;;;;;;;;;;;;;;;4939586;28;19968;-91
2023/12/03 10:27:04;;;;;;;;;;;;;;;;;;4951316;28;20462;-91
2023/12/03 10:29:30;;;;;;;;;;;;;;;;;;4936877;29;20378;-91
2023/12/03 10:31:56;;;;;;;;;;;;;;;;;;4939251;28;19918;-91
2023/12/03 10:34:23;;;;;;;;;;;;;;;;;;4942009;28;19942;-91
2023/12/03 10:36:50;;;;;;;;;;;;;;;;;;4938008;28;19918;-91
2023/12/03 10:39:19;;;;;;;;;;;;;;;;;;4941023;28;19926;-91
2023/12/03 10:41:54;;;;;;;;;;;;;;;;;;4941510;28;21990;-91
2023/12/03 10:44:23;;;;;;;;;;;;;;;;;;4938883;28;19922;-91
2023/12/03 10:46:49;;;;;;;;;;;;;;;;;;4940752;28;20470;-90
2023/12/03 10:49:15;;;;;;;;;;;;;;;;;;4942529;29;19961;-91
2023/12/03 10:51:42;;;;;;;;;;;;;;;;;;4957779;28;20362;-91
2023/12/03 10:54:09;;;;;;;;;;;;;;;;;;4953678;28;20279;-91
2023/12/03 10:56:35;;;;;;;;;;;;;;;;;;4941199;28;19921;-90
2023/12/03 10:59:01;;;;;;;;;;;;;;;;;;4952458;28;19945;-92
2023/12/03 11:01:27;;;;;;;;;;;;;;;;;;4939319;28;20382;-92
2023/12/03 11:06:39;;;;;;;;;;;;;;;;;;4921533;29;19923;-91
2023/12/03 11:09:06;;;;;;;;;;;;;;;;;;4933889;29;19925;-91
2023/12/03 11:11:32;;;;;;;;;;;;;;;;;;4938499;28;19965;-91
2023/12/03 11:13:58;;;;;;;;;;;;;;;;;;4939324;28;19915;-91
2023/12/03 11:16:24;;;;;;;;;;;;;;;;;;4933605;28;20302;-91
2023/12/03 11:19:00;;;;;;;;;;;;;;;;;;4934551;28;19982;-91
2023/12/03 11:21:27;;;;;;;;;;;;;;;;;;4936885;28;20005;-91
2023/12/03 11:23:53;;;;;;;;;;;;;;;;;;4933920;28;19914;-91
2023/12/03 11:26:23;;;;;;;;;;;;;;;;;;4932716;28;19922;-90
2023/12/03 11:28:49;;;;;;;;;;;;;;;;;;4934554;28;19926;-92
2023/12/03 11:31:15;;;;;;;;;;;;;;;;;;4938110;28;20405;-91
2023/12/03 11:33:41;;;;;;;;;;;;;;;;;;4935964;28;19961;-91
2023/12/03 11:38:56;;;;;;;;;;;;;;;;;;4944506;28;19919;-91
2023/12/03 11:41:23;;;;;;;;;;;;;;;;;;4937800;29;19969;-90
2023/12/03 11:43:49;;;;;;;;;;;;;;;;;;4935696;29;19954;-91
2023/12/03 11:46:15;;;;;;;;;;;;;;;;;;4941435;28;19958;-90
2023/12/03 11:48:41;;;;;;;;;;;;;;;;;;4937448;28;20484;-91
2023/12/03 11:51:08;;;;;;;;;;;;;;;;;;4937188;28;20463;-91
2023/12/03 11:53:35;;;;;;;;;;;;;;;;;;4936581;29;19918;-90
2023/12/03 11:56:01;;;;;;;;;;;;;;;;;;4931715;29;19960;-90
2023/12/03 11:58:30;;;;;;;;;;;;;;;;;;4936239;28;19951;-91
2023/12/03 12:00:56;;;;;;;;;;;;;;;;;;4937680;29;20467;-91
2023/12/03 12:03:24;;;;;;;;;;;;;;;;;;4955360;28;19922;-90
2023/12/03 12:05:51;;;;;;;;;;;;;;;;;;4938488;29;19969;-90
2023/12/03 12:08:18;;;;;;;;;;;;;;;;;;4942334;29;19997;-90
2023/12/03 12:10:44;;;;;;;;;;;;;;;;;;4938882;28;20376;-90
2023/12/03 12:13:10;;;;;;;;;;;;;;;;;;4937566;28;19922;-90
2023/12/03 12:15:36;;;;;;;;;;;;;;;;;;4937310;28;19922;-91
2023/12/03 12:18:02;;;;;;;;;;;;;;;;;;4939672;28;20350;-91
2023/12/03 12:20:28;;;;;;;;;;;;;;;;;;4937288;29;19917;-90
2023/12/03 12:22:54;;;;;;;;;;;;;;;;;;4937989;28;19915;-90
2023/12/03 12:25:20;;;;;;;;;;;;;;;;;;4951570;28;19914;-91
2023/12/03 12:27:46;;;;;;;;;;;;;;;;;;4942421;28;19970;-91
2023/12/03 12:30:12;;;;;;;;;;;;;;;;;;4939287;29;19930;-90
2023/12/03 12:32:41;;;;;;;;;;;;;;;;;;4952384;28;19925;-90
2023/12/03 12:35:08;;;;;;;;;;;;;;;;;;4941082;28;19918;-90
2023/12/03 12:37:34;;;;;;;;;;;;;;;;;;4941539;29;19918;-90
2023/12/03 12:40:00;;;;;;;;;;;;;;;;;;4945216;28;19923;-90
2023/12/03 12:42:26;;;;;;;;;;;;;;;;;;4938641;29;20335;-90
2023/12/03 12:44:52;;;;;;;;;;;;;;;;;;4948785;28;20349;-90
2023/12/03 12:47:18;;;;;;;;;;;;;;;;;;4937391;28;20012;-90
2023/12/03 12:49:44;;;;;;;;;;;;;;;;;;4941206;29;20366;-91
2023/12/03 12:52:10;;;;;;;;;;;;;;;;;;4957027;28;19921;-91
2023/12/03 12:54:36;;;;;;;;;;;;;;;;;;4943418;28;19915;-90
2023/12/03 12:57:02;;;;;;;;;;;;;;;;;;4953255;28;19919;-90
2023/12/03 12:59:28;;;;;;;;;;;;;;;;;;4944508;28;19930;-90
2023/12/03 13:01:55;;;;;;;;;;;;;;;;;;4939170;28;19986;-90
2023/12/03 13:04:21;;;;;;;;;;;;;;;;;;4931761;28;19922;-90
2023/12/03 13:06:47;;;;;;;;;;;;;;;;;;4938150;29;20322;-91
2023/12/03 13:09:14;;;;;;;;;;;;;;;;;;4935683;28;20128;-90
2023/12/03 13:11:40;;;;;;;;;;;;;;;;;;4940290;28;19918;-90
2023/12/03 13:14:06;;;;;;;;;;;;;;;;;;4938804;29;19938;-90
2023/12/03 13:16:32;;;;;;;;;;;;;;;;;;4952403;28;19923;-92
2023/12/03 13:18:58;;;;;;;;;;;;;;;;;;4958249;28;19922;-92
2023/12/03 13:21:24;;;;;;;;;;;;;;;;;;4955721;28;20409;-92
2023/12/03 13:23:50;;;;;;;;;;;;;;;;;;4941966;28;20342;-92
2023/12/03 13:26:16;;;;;;;;;;;;;;;;;;4945648;29;19918;-90
2023/12/03 13:28:43;;;;;;;;;;;;;;;;;;4955414;28;19918;-90
2023/12/03 13:31:12;;;;;;;;;;;;;;;;;;4938230;28;20436;-91
2023/12/03 13:33:38;;;;;;;;;;;;;;;;;;4942352;28;19999;-90
2023/12/03 13:36:04;;;;;;;;;;;;;;;;;;4941965;28;19915;-91
2023/12/03 13:38:30;;;;;;;;;;;;;;;;;;4954211;28;19933;-91
2023/12/03 13:41:04;;;;;;;;;;;;;;;;;;4953766;28;19961;-91
2023/12/03 13:43:30;;;;;;;;;;;;;;;;;;4938775;28;20394;-90
2023/12/03 13:45:56;;;;;;;;;;;;;;;;;;4941718;28;19914;-91
2023/12/03 13:48:22;;;;;;;;;;;;;;;;;;4944794;28;19922;-91
2023/12/03 13:50:48;;;;;;;;;;;;;;;;;;4942754;29;20366;-91
2023/12/03 13:53:14;;;;;;;;;;;;;;;;;;4953204;28;19918;-90
2023/12/03 13:55:40;;;;;;;;;;;;;;;;;;4937457;28;19919;-91
2023/12/03 13:58:06;;;;;;;;;;;;;;;;;;4938333;28;19929;-91
2023/12/03 14:00:32;;;;;;;;;;;;;;;;;;4940111;28;19918;-91
2023/12/03 14:02:58;;;;;;;;;;;;;;;;;;4948308;28;19930;-91
2023/12/03 14:05:24;;;;;;;;;;;;;;;;;;4935328;28;20287;-91
2023/12/03 14:07:52;;;;;;;;;;;;;;;;;;4937015;28;20005;-92
2023/12/03 14:10:18;;;;;;;;;;;;;;;;;;4952603;28;19923;-91
2023/12/03 14:12:44;;;;;;;;;;;;;;;;;;4937165;28;19922;-90
2023/12/03 14:15:10;;;;;;;;;;;;;;;;;;4937032;29;19925;-90
2023/12/03 14:17:36;;;;;;;;;;;;;;;;;;4950837;28;20238;-91
2023/12/03 14:20:04;;;;;;;;;;;;;;;;;;4936669;29;19929;-91
2023/12/03 14:22:30;;;;;;;;;;;;;;;;;;4933630;29;19918;-89
2023/12/03 14:24:56;;;;;;;;;;;;;;;;;;4937553;28;20414;-90
2023/12/03 14:27:23;;;;;;;;;;;;;;;;;;4933042;29;19922;-90
2023/12/03 14:29:49;;;;;;;;;;;;;;;;;;4936181;28;19962;-90
2023/12/03 14:32:15;;;;;;;;;;;;;;;;;;4935798;28;19915;-91
2023/12/03 14:34:41;;;;;;;;;;;;;;;;;;4939517;28;20017;-90
2023/12/03 14:37:07;;;;;;;;;;;;;;;;;;4936754;28;20410;-93
2023/12/03 14:39:33;;;;;;;;;;;;;;;;;;4938932;29;22633;-93
2023/12/03 14:41:59;;;;;;;;;;;;;;;;;;4937746;28;19919;-93
2023/12/03 14:44:25;;;;;;;;;;;;;;;;;;4937470;28;19933;-92
2023/12/03 14:46:51;;;;;;;;;;;;;;;;;;4934897;28;19919;-92
2023/12/03 14:49:17;;;;;;;;;;;;;;;;;;4937320;28;20449;-93
2023/12/03 14:51:44;;;;;;;;;;;;;;;;;;4936662;28;20013;-93
2023/12/03 14:54:10;;;;;;;;;;;;;;;;;;4935852;28;20359;-92
2023/12/03 14:56:35;;;;;;;;;;;;;;;;;;4935818;28;19921;-91
2023/12/03 14:59:05;;;;;;;;;;;;;;;;;;4937688;28;19934;-92
2023/12/03 15:01:31;;;;;;;;;;;;;;;;;;4946485;28;20592;-92
2023/12/03 15:03:57;;;;;;;;;;;;;;;;;;4928072;29;19925;-93
2023/12/03 15:06:23;;;;;;;;;;;;;;;;;;4935357;28;19915;-93
2023/12/03 15:08:49;;;;;;;;;;;;;;;;;;4936375;28;19943;-93
2023/12/03 15:11:15;;;;;;;;;;;;;;;;;;4935699;29;20311;-93
2023/12/03 15:13:41;;;;;;;;;;;;;;;;;;4947991;28;20366;-92
2023/12/03 15:16:07;;;;;;;;;;;;;;;;;;4935432;29;19930;-93
2023/12/03 15:18:33;;;;;;;;;;;;;;;;;;4932647;28;19929;-93
2023/12/03 15:20:59;;;;;;;;;;;;;;;;;;4936727;29;19993;-93
2023/12/03 15:23:25;;;;;;;;;;;;;;;;;;4933693;28;19918;-93
2023/12/03 15:25:51;;;;;;;;;;;;;;;;;;4937148;28;19969;-93
2023/12/03 15:28:17;;;;;;;;;;;;;;;;;;4950157;28;19922;-92
2023/12/03 15:30:46;;;;;;;;;;;;;;;;;;4940833;28;19914;-92
2023/12/03 15:33:12;;;;;;;;;;;;;;;;;;4935854;28;19926;-93
2023/12/03 15:35:38;;;;;;;;;;;;;;;;;;4934041;28;19918;-93
2023/12/03 15:38:03;;;;;;;;;;;;;;;;;;4940385;28;19922;-92
2023/12/03 15:40:29;;;;;;;;;;;;;;;;;;4947587;28;20759;-92
2023/12/03 15:42:55;;;;;;;;;;;;;;;;;;4937468;28;19918;-93
2023/12/03 15:45:21;;;;;;;;;;;;;;;;;;4939538;29;19918;-91
2023/12/03 15:47:47;;;;;;;;;;;;;;;;;;4932481;28;19921;-90
2023/12/03 15:50:13;;;;;;;;;;;;;;;;;;4935918;28;19925;-90
2023/12/03 15:52:39;;;;;;;;;;;;;;;;;;4933581;29;19922;-90
2023/12/03 15:55:05;;;;;;;;;;;;;;;;;;4931535;29;19922;-90
2023/12/03 15:57:31;;;;;;;;;;;;;;;;;;4935018;28;20300;-90
2023/12/03 15:59:57;;;;;;;;;;;;;;;;;;4934352;28;20426;-90
2023/12/03 16:02:23;;;;;;;;;;;;;;;;;;4937655;28;19918;-90
2023/12/03 16:04:49;;;;;;;;;;;;;;;;;;4934383;28;20183;-91
2023/12/03 16:07:16;;;;;;;;;;;;;;;;;;4946688;28;19938;-90
2023/12/03 16:09:42;;;;;;;;;;;;;;;;;;4952999;28;20013;-90
2023/12/03 16:12:08;;;;;;;;;;;;;;;;;;4951940;28;19926;-90
2023/12/03 16:14:34;;;;;;;;;;;;;;;;;;4948151;28;19918;-90
2023/12/03 16:16:59;;;;;;;;;;;;;;;;;;4940192;29;19922;-90
2023/12/03 16:19:25;;;;;;;;;;;;;;;;;;4936235;28;20399;-90
2023/12/03 16:21:52;;;;;;;;;;;;;;;;;;4937889;28;19919;-91
2023/12/03 16:24:18;;;;;;;;;;;;;;;;;;4940693;29;19925;-91
2023/12/03 16:26:44;;;;;;;;;;;;;;;;;;4938123;29;19923;-93
2023/12/03 16:29:10;;;;;;;;;;;;;;;;;;4941111;29;20310;-93
2023/12/03 16:31:36;;;;;;;;;;;;;;;;;;4938746;28;19914;-91
2023/12/03 16:34:02;;;;;;;;;;;;;;;;;;4951285;28;19959;-90
2023/12/03 16:36:28;;;;;;;;;;;;;;;;;;4935273;28;19918;-91
2023/12/03 16:38:54;;;;;;;;;;;;;;;;;;4937555;28;19925;-91
2023/12/03 16:41:20;;;;;;;;;;;;;;;;;;4937017;29;19915;-90
2023/12/03 16:43:46;;;;;;;;;;;;;;;;;;4937191;28;20087;-90